createdAt,value
2023-05-04T00:51:24.668Z,10.20
2023-05-04T01:23:20.962Z,9.90
2023-05-04T02:16:21.602Z,9.40
2023-05-04T04:57:40.884Z,8.10
2023-05-04T05:02:43.585Z,8.20
2023-05-04T05:07:45.431Z,8.10
2023-05-04T05:12:47.507Z,8.20
2023-05-04T05:17:49.337Z,8.20
2023-05-04T05:22:52.137Z,8.30
2023-05-04T05:27:54.035Z,8.40
2023-05-04T05:32:55.808Z,8.40
2023-05-04T05:37:58.285Z,8.50
2023-05-04T05:43:00.165Z,8.60
2023-05-04T05:48:02.080Z,8.70
2023-05-04T05:53:03.958Z,8.80
2023-05-04T05:58:05.838Z,8.80
2023-05-04T06:03:07.903Z,8.90
2023-05-04T06:08:09.820Z,9.10
2023-05-04T06:13:11.751Z,9.20
2023-05-04T06:18:13.680Z,9.30
2023-05-04T06:23:16.567Z,9.50
2023-05-04T06:28:18.440Z,9.60
2023-05-04T06:33:20.399Z,9.70
2023-05-04T06:38:22.437Z,9.80
2023-05-04T06:43:24.282Z,9.90
2023-05-04T06:48:26.229Z,10.00
2023-05-04T06:53:28.061Z,10.20
2023-05-04T06:58:29.957Z,10.30
2023-05-04T07:03:31.806Z,10.40
2023-05-04T07:08:33.983Z,10.60
2023-05-04T07:13:36.073Z,10.80
2023-05-04T07:18:39.045Z,10.90
2023-05-04T07:23:40.930Z,11.10
2023-05-04T07:28:43.964Z,11.30
2023-05-04T07:33:45.952Z,11.70
2023-05-04T07:38:47.853Z,11.90
2023-05-04T07:43:49.687Z,12.20
2023-05-04T07:48:51.628Z,12.40
2023-05-04T07:53:53.459Z,12.60
2023-05-04T07:58:56.168Z,12.90
2023-05-04T08:03:58.028Z,13.20
2023-05-04T08:08:59.839Z,13.40
2023-05-04T08:14:01.802Z,13.50
2023-05-04T08:19:03.774Z,13.70
2023-05-04T08:24:05.865Z,13.90
2023-05-04T08:29:10.546Z,14.10
2023-05-04T08:34:12.596Z,14.40
2023-05-04T08:39:14.586Z,14.60
2023-05-04T08:44:17.664Z,14.70
2023-05-04T08:49:23.623Z,15.00
2023-05-04T08:54:26.410Z,15.20
2023-05-04T08:59:29.270Z,15.50
2023-05-04T09:04:31.174Z,15.70
2023-05-04T09:09:33.552Z,15.80
2023-05-04T09:14:36.254Z,15.90
2023-05-04T09:19:39.011Z,16.10
2023-05-04T09:24:40.917Z,16.30
2023-05-04T09:29:43.142Z,16.60
2023-05-04T09:34:51.878Z,16.70
2023-05-04T09:39:55.588Z,17.00
2023-05-04T09:45:00.931Z,17.40
2023-05-04T09:50:22.343Z,17.70
2023-05-04T09:55:24.728Z,18.10
2023-05-04T10:00:29.060Z,18.40
2023-05-04T10:05:30.909Z,18.50
2023-05-04T10:10:33.881Z,18.60
2023-05-04T10:15:37.444Z,18.90
2023-05-04T10:21:17.285Z,19.20
2023-05-04T10:26:55.191Z,19.30
2023-05-04T10:31:57.337Z,19.80
2023-05-04T10:37:00.393Z,20.10
2023-05-04T10:42:03.945Z,20.40
2023-05-04T10:47:08.942Z,20.80
2023-05-04T10:52:18.268Z,21.20
2023-05-04T10:57:20.429Z,21.40
2023-05-04T11:02:23.961Z,22.10
2023-05-04T11:07:39.148Z,22.50
2023-05-04T11:12:43.076Z,22.90
2023-05-04T11:17:54.482Z,23.60
2023-05-04T11:22:56.513Z,24.00
2023-05-04T11:27:58.982Z,24.40
2023-05-04T11:33:02.534Z,24.70
2023-05-04T11:38:04.690Z,25.10
2023-05-04T11:43:09.813Z,25.40
2023-05-04T11:48:13.072Z,25.80
2023-05-04T11:53:15.812Z,26.30
2023-05-04T11:58:24.171Z,26.40
2023-05-04T12:03:43.822Z,26.50
2023-05-04T12:09:02.039Z,26.30
2023-05-04T12:14:11.923Z,26.40
2023-05-04T12:19:15.711Z,26.90
2023-05-04T12:24:17.791Z,26.80
2023-05-04T12:29:19.645Z,27.00
2023-05-04T12:34:21.589Z,27.20
2023-05-04T12:39:24.290Z,27.30
2023-05-04T12:44:26.371Z,27.60
2023-05-04T12:49:28.357Z,27.80
2023-05-04T12:54:30.413Z,27.70
2023-05-04T12:59:32.283Z,27.50
2023-05-04T13:04:34.353Z,27.70
2023-05-04T13:09:36.420Z,27.50
2023-05-04T13:14:40.066Z,27.30
2023-05-04T13:19:42.047Z,27.30
2023-05-04T13:24:44.014Z,27.30
2023-05-04T13:29:46.063Z,27.30
2023-05-04T13:34:48.337Z,27.10
2023-05-04T13:39:50.804Z,26.80
2023-05-04T13:44:52.980Z,27.00
2023-05-04T13:49:55.250Z,27.40
2023-05-04T13:54:57.062Z,27.80
2023-05-04T14:00:07.228Z,28.10
2023-05-04T14:05:10.348Z,28.20
2023-05-04T14:10:13.086Z,28.30
2023-05-04T14:15:16.670Z,28.60
2023-05-04T14:20:18.625Z,28.70
2023-05-04T14:25:22.472Z,28.70
2023-05-04T14:30:24.472Z,28.60
2023-05-04T14:35:26.405Z,28.60
2023-05-04T14:40:28.297Z,28.70
2023-05-04T14:45:30.245Z,28.70
2023-05-04T14:50:32.275Z,28.40
2023-05-04T14:55:36.559Z,28.20
2023-05-04T15:00:38.424Z,27.80
2023-05-04T15:05:40.307Z,27.60
2023-05-04T15:10:42.217Z,27.30
2023-05-04T15:15:44.088Z,27.00
2023-05-04T15:20:52.032Z,26.70
2023-05-04T15:25:53.841Z,26.50
2023-05-04T15:30:56.338Z,26.30
2023-05-04T15:35:58.148Z,26.20
2023-05-04T15:40:59.948Z,26.20
2023-05-04T15:46:01.961Z,26.00
2023-05-04T15:51:03.944Z,25.80
2023-05-04T15:56:06.532Z,25.80
2023-05-04T16:01:10.040Z,25.70
2023-05-04T16:06:15.534Z,25.70
2023-05-04T16:11:17.441Z,26.00
2023-05-04T16:16:19.311Z,26.20
2023-05-04T16:21:21.311Z,26.30
2023-05-04T16:26:23.263Z,26.30
2023-05-04T16:31:25.250Z,26.20
2023-05-04T16:36:27.074Z,26.10
2023-05-04T16:41:30.746Z,26.00
2023-05-04T16:46:32.579Z,25.90
2023-05-04T16:51:34.374Z,25.80
2023-05-04T16:56:36.648Z,25.50
2023-05-04T17:01:38.939Z,25.40
2023-05-04T17:06:40.798Z,25.20
2023-05-04T17:11:42.702Z,24.90
2023-05-04T17:16:44.604Z,24.80
2023-05-04T17:21:46.490Z,24.60
2023-05-04T17:26:48.449Z,24.60
2023-05-04T17:31:50.442Z,24.50
2023-05-04T17:36:52.561Z,24.40
2023-05-04T17:41:54.575Z,24.30
2023-05-04T17:46:56.405Z,24.10
2023-05-04T17:51:58.220Z,23.90
2023-05-04T17:57:00.212Z,23.70
2023-05-04T18:02:03.272Z,23.50
2023-05-04T18:07:05.212Z,23.40
2023-05-04T18:12:07.081Z,23.30
2023-05-04T18:17:08.910Z,23.10
2023-05-04T18:22:10.720Z,22.90
2023-05-04T18:27:12.715Z,22.80
2023-05-04T18:32:14.677Z,22.70
2023-05-04T18:37:16.523Z,22.60
2023-05-04T18:42:18.408Z,22.50
2023-05-04T18:47:20.347Z,22.30
2023-05-04T18:52:22.294Z,22.20
2023-05-04T18:57:24.149Z,22.10
2023-05-04T19:02:26.701Z,22.00
2023-05-04T19:07:28.556Z,21.80
2023-05-04T19:12:30.769Z,21.60
2023-05-04T19:17:35.907Z,21.50
2023-05-04T19:22:37.746Z,21.40
2023-05-04T19:27:39.589Z,21.20
2023-05-04T19:32:41.522Z,21.10
2023-05-04T19:37:43.399Z,21.00
2023-05-04T19:42:46.142Z,20.80
2023-05-04T19:47:48.454Z,20.70
2023-05-04T19:52:50.648Z,20.60
2023-05-04T19:57:52.826Z,20.50
2023-05-04T20:02:54.740Z,20.50
2023-05-04T20:07:56.982Z,20.40
2023-05-04T20:12:59.018Z,20.40
2023-05-04T20:18:01.115Z,20.30
2023-05-04T20:23:03.327Z,20.30
2023-05-04T20:28:05.325Z,20.30
2023-05-04T20:33:07.186Z,20.30
2023-05-04T20:38:09.263Z,20.20
